Latest Weather Observations for Rhyll

IDV60901

Issued at 2:51 pm EDT Monday 8 February 2016 (issued every 10 minutes, with the page automatically refreshed every 10 minutes)

About weather observations | Map of Melbourne area stations | Latest observations for Melbourne area | Other Formats
Station Details ID: 086373 Name: RHYLL Lat: -38.46 Lon: 145.31 Height: 13.4 m
Data from the previous 72 hours. | See also: Recent months at Rhyll
Date/Time
EDT
Tmp

°C
App
Tmp
°C
Dew
Point
°C
Rel
Hum
%
Delta-T

°C
Wind Press
QNH
hPa
Press
MSL
hPa
Rain
since
9 am
mm
Dir
 
Spd
km/h
Gust
km/h
Spd
kts
Gust
kts
08/02:30pm 21.4 20.2 15.0 67 3.8 SSW 15 28 8 15 1022.5 1022.5 0.0
08/02:00pm 21.1 20.1 13.5 62 4.4 SSW 11 22 6 12 1022.6 1022.6 0.0
08/01:30pm 22.0 20.5 14.1 61 4.6 SSW 15 24 8 13 1022.6 1022.6 0.0
08/01:00pm 22.9 22.2 14.2 58 5.1 S 11 20 6 11 1022.6 1022.6 0.0
08/12:30pm 21.7 21.0 14.4 63 4.3 SSW 11 20 6 11 1022.6 1022.6 0.0
08/12:00pm 22.6 21.6 13.4 56 5.3 SSW 11 19 6 10 1022.7 1022.7 0.0
08/11:30am 20.6 19.0 13.8 65 3.9 SSW 15 24 8 13 1022.7 1022.7 0.0
08/11:00am 20.9 19.7 14.1 65 3.9 SSW 13 24 7 13 1022.6 1022.6 0.0
08/10:30am 22.2 21.8 15.3 65 4.1 SSW 11 22 6 12 1022.5 1022.5 0.0
08/10:00am 20.7 19.5 13.9 65 3.9 SW 13 24 7 13 1022.4 1022.4 0.0
08/09:30am 20.4 20.0 14.1 67 3.6 SW 9 15 5 8 1022.3 1022.3 0.0
08/09:00am 20.5 20.0 14.8 70 3.3 SW 11 19 6 10 1022.1 1022.1 0.0
08/08:30am 19.5 19.4 15.0 75 2.6 SW 9 17 5 9 1021.7 1021.7 0.0
08/08:00am 18.9 19.4 15.0 78 2.3 SW 6 9 3 5 1021.4 1021.4 0.0
08/07:30am 17.6 18.0 14.7 83 1.7 WSW 6 7 3 4 1021.1 1021.1 0.0
08/07:00am 16.9 17.3 14.7 87 1.3 WSW 6 9 3 5 1020.8 1020.8 0.0
08/06:30am 17.1 17.8 15.6 91 0.9 W 6 7 3 4 1020.6 1020.6 0.0
08/06:00am 17.3 18.1 15.8 91 0.9 WSW 6 7 3 4 1020.3 1020.3 0.0
08/05:30am 17.4 18.2 15.9 91 0.9 WSW 6 9 3 5 1020.2 1020.2 0.0
08/05:00am 17.6 18.9 16.1 91 0.9 WSW 4 7 2 4 1020.1 1020.1 0.0
08/04:30am 17.6 18.8 15.9 90 1.0 WSW 4 7 2 4 1020.0 1020.0 0.0
08/04:00am 17.8 18.6 16.3 91 0.9 WSW 7 11 4 6 1019.9 1019.9 0.0
08/03:30am 17.7 18.6 16.2 91 0.9 WSW 6 11 3 6 1019.8 1019.8 0.0
08/03:00am 17.8 19.2 16.3 91 0.9 WSW 4 7 2 4 1019.7 1019.6 0.0
08/02:30am 18.0 19.0 16.3 90 1.0 WSW 6 9 3 5 1019.8 1019.8 0.0
08/02:00am 18.5 19.4 16.7 89 1.1 WSW 7 13 4 7 1020.1 1020.1 0.0
08/01:30am 18.9 19.6 17.0 89 1.1 SW 9 17 5 9 1020.2 1020.2 0.0
08/01:00am 18.8 19.1 17.1 90 1.0 SW 11 19 6 10 1020.2 1020.2 0.0
08/12:30am 18.7 19.1 17.2 91 0.9 SW 11 20 6 11 1019.8 1019.8 0.0
08/12:00am 18.3 18.6 17.1 93 0.7 SW 11 19 6 10 1019.7 1019.6 0.0
 
Date/Time
EDT
Tmp

°C
App
Tmp
°C
Dew
Point
°C
Rel
Hum
%
Delta-T

°C
Wind Press
QNH
hPa
Press
MSL
hPa
Rain
since
9 am
mm
Dir
 
Spd
km/h
Gust
km/h
Spd
kts
Gust
kts
07/11:30pm 18.0 19.3 17.0 94 0.6 WSW 6 11 3 6 1019.7 1019.6 0.0
07/11:00pm 18.3 19.7 17.3 94 0.6 WSW 6 9 3 5 1019.5 1019.4 0.0
07/10:30pm 18.6 20.0 17.4 93 0.7 WSW 6 9 3 5 1019.4 1019.3 0.0
07/10:00pm 18.8 20.3 17.5 92 0.8 SW 6 9 3 5 1019.3 1019.2 0.0
07/09:30pm 19.2 20.6 17.7 91 0.9 SW 7 11 4 6 1018.9 1018.8 0.0
07/09:00pm 19.4 20.2 18.1 92 0.8 SW 11 19 6 10 1018.7 1018.6 0.0
07/08:30pm 19.6 20.4 18.1 91 0.9 SW 11 17 6 9 1018.4 1018.3 0.0
07/08:00pm 20.2 21.1 18.3 89 1.2 SSW 11 20 6 11 1017.9 1017.8 0.0
07/07:30pm 21.0 21.6 18.6 86 1.5 SSW 13 24 7 13 1017.4 1017.3 0.0
07/07:00pm 21.6 22.6 18.6 83 1.9 SSW 11 22 6 12 1017.0 1016.9 0.0
07/06:30pm 22.1 22.4 18.7 81 2.1 SSW 15 24 8 13 1016.7 1016.6 0.0
07/06:00pm 23.0 23.6 19.4 80 2.3 SSW 15 24 8 13 1016.8 1016.7 0.0
07/05:30pm 23.7 23.5 18.6 73 3.2 S 17 28 9 15 1016.5 1016.4 0.0
07/05:00pm 24.1 24.5 19.0 73 3.2 SSW 15 24 8 13 1016.5 1016.4 0.0
07/04:30pm 24.7 25.4 18.9 70 3.7 SSW 13 24 7 13 1016.5 1016.4 0.0
07/04:00pm 25.4 26.6 19.1 68 4.0 S 11 22 6 12 1016.4 1016.3 0.0
07/03:30pm 25.7 26.6 18.4 64 4.6 S 11 20 6 11 1016.4 1016.3 0.0
07/03:00pm 24.8 25.4 18.5 68 4.0 SSW 13 24 7 13 1016.5 1016.4 0.0
07/02:30pm 24.2 23.8 18.8 72 3.4 SSW 19 30 10 16 1016.6 1016.5 0.0
07/02:00pm 24.3 23.8 18.7 71 3.5 SSW 19 32 10 17 1016.7 1016.6 0.0
07/01:30pm 25.8 26.1 18.7 65 4.5 SSW 15 24 8 13 1016.6 1016.5 0.0
07/01:00pm 26.8 28.9 19.4 64 4.8 S 7 17 4 9 1016.5 1016.4 0.0
07/12:30pm 26.9 29.1 19.5 64 4.8 S 7 9 4 5 1016.7 1016.6 0.0
07/12:00pm 26.7 28.5 18.8 62 5.1 S 7 9 4 5 1016.9 1016.8 0.0
07/11:30am 26.0 27.8 18.2 62 4.9 SE 6 7 3 4 1017.0 1016.9 0.0
07/11:00am 24.4 26.8 19.7 75 3.0 N 6 11 3 6 1017.1 1017.0 0.0
07/10:30am 22.1 23.2 17.9 77 2.6 NNW 9 11 5 6 1017.3 1017.2 0.0
07/10:00am 21.8 23.3 18.0 79 2.4 N 7 9 4 5 1017.1 1017.0 0.0
07/09:30am 21.0 22.4 17.4 80 2.2 NNW 6 7 3 4 1016.8 1016.7 0.0
07/09:00am 20.3 21.8 16.7 80 2.2 N 4 6 2 3 1016.7 1016.6 0.0
07/08:30am 20.5 22.0 16.7 79 2.3 NNE 4 6 2 3 1016.4 1016.3 0.0
07/08:00am 19.8 20.8 16.4 81 2.0 NE 6 6 3 3 1016.1 1016.0 0.0
07/07:30am 19.4 20.7 17.0 86 1.5 NE 6 7 3 4 1015.8 1015.7 0.0
07/07:00am 18.5 19.9 16.5 88 1.2 NNE 4 9 2 5 1015.5 1015.4 0.0
07/06:30am 18.5 18.6 16.5 88 1.2 NE 11 15 6 8 1015.3 1015.2 0.0
07/06:00am 18.6 18.3 16.4 87 1.3 NE 13 17 7 9 1014.9 1014.8 0.0
07/05:30am 18.8 19.2 16.2 85 1.6 NNE 9 13 5 7 1014.7 1014.6 0.0
07/05:00am 19.0 19.9 16.2 84 1.7 NNE 6 9 3 5 1014.6 1014.5 0.0
07/04:30am 19.2 19.9 16.1 82 1.8 NNE 7 11 4 6 1014.6 1014.5 0.0
07/04:00am 19.3 19.7 16.3 83 1.8 NNE 9 11 5 6 1014.6 1014.5 0.0
07/03:30am 19.1 20.3 16.0 82 1.8 NNE 4 7 2 4 1014.6 1014.5 0.0
07/03:00am 19.4 20.1 16.1 81 2.0 N 7 9 4 5 1014.8 1014.7 0.0
07/02:30am 19.8 20.7 16.6 82 1.9 N 7 11 4 6 1014.8 1014.7 0.0
07/02:00am 19.3 20.5 16.9 86 1.5 ENE 6 7 3 4 1015.0 1014.9 0.0
07/01:30am 19.6 20.6 16.8 84 1.7 ENE 7 9 4 5 1015.3 1015.2 0.0
07/01:00am 20.4 20.9 17.4 83 1.8 ENE 11 13 6 7 1015.5 1015.4 0.0
07/12:30am 20.6 20.4 17.6 83 1.8 ENE 15 17 8 9 1015.5 1015.4 0.0
07/12:00am 20.7 21.2 17.5 82 2.0 ENE 11 15 6 8 1015.6 1015.5 0.0
 
Date/Time
EDT
Tmp

°C
App
Tmp
°C
Dew
Point
°C
Rel
Hum
%
Delta-T

°C
Wind Press
QNH
hPa
Press
MSL
hPa
Rain
since
9 am
mm
Dir
 
Spd
km/h
Gust
km/h
Spd
kts
Gust
kts
06/11:30pm 21.0 21.0 17.2 79 2.3 ENE 13 19 7 10 1015.6 1015.5 0.0
06/11:00pm 21.5 20.5 17.5 78 2.5 ENE 19 22 10 12 1015.6 1015.5 0.0
06/10:30pm 21.6 21.2 18.0 80 2.2 ENE 17 20 9 11 1015.6 1015.5 0.0
06/10:00pm 22.2 21.2 18.0 77 2.6 ENE 20 26 11 14 1015.4 1015.3 0.0
06/09:30pm 22.6 23.9 18.4 77 2.6 ENE 9 19 5 10 1015.0 1014.9 0.0
06/09:00pm 23.3 24.3 18.6 75 3.0 ESE 11 15 6 8 1014.5 1014.4 0.0
06/08:30pm 23.8 23.1 18.7 73 3.2 ESE 20 24 11 13 1014.1 1014.0 0.0
06/08:00pm 24.6 22.2 18.3 68 4.0 ESE 28 32 15 17 1013.9 1013.8 0.0
06/07:30pm 25.3 23.3 18.2 64 4.5 ESE 26 33 14 18 1013.8 1013.7 0.0
06/07:00pm 25.8 25.6 18.5 64 4.6 SE 17 20 9 11 1013.8 1013.7 0.0
06/06:30pm 26.4 26.2 18.5 62 5.0 SE 17 20 9 11 1013.9 1013.8 0.0
06/06:00pm 27.1 27.4 18.7 60 5.4 SE 15 19 8 10 1013.9 1013.8 0.0
06/05:30pm 27.3 28.1 19.1 61 5.3 SE 13 17 7 9 1014.0 1013.9 0.0
06/05:00pm 27.4 28.0 18.7 59 5.6 SE 13 17 7 9 1014.2 1014.1 0.0
06/04:30pm 27.7 27.8 17.5 53 6.4 SE 13 17 7 9 1014.5 1014.4 0.0
06/04:00pm 28.1 28.7 17.6 53 6.6 SE 11 15 6 8 1014.9 1014.8 0.0
06/03:30pm 28.8 30.4 18.3 53 6.7 SE 7 9 4 5 1015.1 1015.0 0.0
06/03:00pm 27.8 28.0 16.7 50 6.9 ESE 11 15 6 8 1015.4 1015.3 0.0
06/02:30pm 28.0 28.8 18.1 55 6.3 ESE 11 13 6 7 1015.7 1015.6 0.0
06/02:00pm 28.0 29.3 18.4 56 6.1 ESE 9 11 5 6 1016.0 1015.9 0.0
06/01:30pm 27.5 28.4 18.5 58 5.8 E 11 13 6 7 1016.3 1016.2 0.0
06/01:00pm 28.1 29.0 18.5 56 6.1 E 11 13 6 7 1016.7 1016.6 0.0
06/12:30pm 28.0 28.9 18.4 56 6.1 E 11 13 6 7 1017.1 1017.0 0.0
06/12:00pm 27.3 28.3 16.9 53 6.5 NNE 7 9 4 5 1017.5 1017.4 0.0
06/11:30am 26.5 27.6 17.0 56 5.9 NNE 7 11 4 6 1017.7 1017.6 0.0
06/11:00am 25.8 26.6 16.4 56 5.8 NNE 7 13 4 7 1017.8 1017.7 0.0
06/10:30am 24.2 25.3 16.5 62 4.7 NNE 6 7 3 4 1017.9 1017.8 0.0
06/10:00am 24.1 24.6 16.6 63 4.6 NE 9 13 5 7 1018.0 1017.9 0.0
06/09:30am 22.9 22.3 15.7 64 4.3 NE 13 15 7 8 1018.1 1018.0 0.0
06/09:00am 21.8 20.0 15.6 68 3.7 NE 19 20 10 11 1018.0 1017.9 0.0
06/08:30am 20.6 18.3 15.6 73 3.0 NE 22 26 12 14 1017.9 1017.8 0.0
06/08:00am 19.5 17.5 15.4 77 2.4 NE 20 26 11 14 1017.7 1017.6 0.0
06/07:30am 18.5 17.0 15.4 82 1.8 NE 17 22 9 12 1017.4 1017.3 0.0
06/07:00am 17.8 16.8 14.7 82 1.8 NNE 13 19 7 10 1017.2 1017.1 0.0
06/06:30am 17.3 16.3 14.6 84 1.6 E 13 15 7 8 1017.0 1016.9 0.0
06/06:00am 17.6 16.3 14.9 84 1.6 E 15 19 8 10 1016.5 1016.4 0.0
06/05:30am 17.7 15.6 14.8 83 1.7 E 19 24 10 13 1016.5 1016.4 0.0
06/05:00am 17.9 15.3 15.0 83 1.7 E 22 26 12 14 1016.4 1016.3 0.0
06/04:30am 18.1 14.8 15.0 82 1.8 E 26 32 14 17 1016.6 1016.5 0.0
06/04:00am 18.1 14.7 14.8 81 1.9 E 26 32 14 17 1016.8 1016.7 0.0
06/03:30am 18.3 14.2 15.0 81 1.9 E 30 35 16 19 1016.9 1016.8 0.0
06/03:00am 18.3 15.0 15.0 81 1.9 E 26 32 14 17 1017.2 1017.1 0.0
06/02:30am 18.5 15.3 15.2 81 1.9 E 26 32 14 17 1017.3 1017.2 0.0
06/02:00am 18.6 14.5 14.9 79 2.2 E 30 37 16 20 1017.4 1017.3 0.0
06/01:30am 18.7 15.3 14.8 78 2.3 E 26 30 14 16 1017.8 1017.7 0.0
06/01:00am 18.8 15.8 14.9 78 2.3 E 24 28 13 15 1018.0 1017.9 0.0
06/12:30am 18.9 15.8 14.4 75 2.6 E 24 32 13 17 1018.2 1018.1 0.0
06/12:00am 19.1 15.5 14.1 73 2.9 E 26 37 14 20 1018.3 1018.2 0.0
 
Date/Time
EDT
Tmp

°C
App
Tmp
°C
Dew
Point
°C
Rel
Hum
%
Delta-T

°C
Wind Press
QNH
hPa
Press
MSL
hPa
Rain
since
9 am
mm
Dir
 
Spd
km/h
Gust
km/h
Spd
kts
Gust
kts
05/11:30pm 19.3 15.7 14.1 72 3.0 E 26 35 14 19 1018.6 1018.5 0.0
05/11:00pm 19.7 15.1 14.5 72 3.0 E 32 39 17 21 1018.7 1018.6 0.0
05/10:30pm 20.0 15.1 14.4 70 3.3 E 33 41 18 22 1018.7 1018.6 0.0
05/10:00pm 20.6 15.1 14.7 69 3.4 E 37 44 20 24 1018.7 1018.6 0.0
05/09:30pm 21.1 16.3 14.7 67 3.8 E 33 41 18 22 1018.4 1018.3 0.0
05/09:00pm 21.3 18.8 15.2 68 3.6 ESE 22 26 12 14 1018.1 1018.0 0.0
05/08:30pm 22.3 17.9 15.2 64 4.2 E 32 39 17 21 1017.8 1017.7 0.0
05/08:00pm 23.3 19.3 15.1 60 4.9 E 30 37 16 20 1017.3 1017.2 0.0
05/07:30pm 24.0 19.4 14.7 56 5.5 E 32 37 17 20 1017.0 1016.9 0.0
05/07:00pm 24.6 21.0 15.2 55 5.6 E 28 35 15 19 1016.9 1016.8 0.0
05/06:30pm 24.9 21.0 15.5 56 5.7 E 30 35 16 19 1016.8 1016.7 0.0
05/06:00pm 25.5 22.1 15.8 55 5.9 E 28 33 15 18 1016.7 1016.6 0.0
05/05:30pm 26.1 23.7 16.4 55 6.0 E 24 28 13 15 1016.9 1016.8 0.0
05/05:00pm 26.4 23.8 16.9 56 5.9 E 26 33 14 18 1017.1 1017.0 0.0
05/04:30pm 27.4 25.9 17.6 55 6.2 E 22 28 12 15 1017.3 1017.2 0.0
05/04:00pm 27.1 25.9 17.0 54 6.3 E 19 24 10 13 1017.5 1017.4 0.0
05/03:30pm 27.1 25.0 16.1 51 6.8 E 22 28 12 15 1017.9 1017.8 0.0
05/03:00pm 26.6 24.1 16.2 52 6.4 ESE 24 30 13 16 1018.2 1018.1 0.0

Latest Capital City Observations: Canberra | Sydney | Melbourne | Brisbane | Adelaide | Perth | Hobart | Darwin

Other Formats:

Comma delimited format used in spreadsheet applications
http://www.bom.gov.au/fwo/IDV60901/IDV60901.94892.axf

JavaScript Object Notation format (JSON) in row-major order
http://www.bom.gov.au/fwo/IDV60901/IDV60901.94892.json